createdAt,value
2023-03-29T00:03:45.311Z,3.34
2023-03-29T00:08:50.932Z,3.43
2023-03-29T00:13:53.686Z,3.56
2023-03-29T00:18:56.877Z,3.50
2023-03-29T00:23:59.480Z,3.48
2023-03-29T00:29:01.858Z,3.23
2023-03-29T00:34:04.551Z,3.14
2023-03-29T00:39:07.583Z,3.16
2023-03-29T00:44:11.452Z,3.11
2023-03-29T00:49:15.338Z,3.21
2023-03-29T00:54:18.650Z,3.21
2023-03-29T00:59:21.592Z,3.16
2023-03-29T01:04:24.019Z,3.09
2023-03-29T01:09:27.060Z,3.03
2023-03-29T01:14:29.913Z,2.87
2023-03-29T01:19:33.794Z,2.88
2023-03-29T01:24:36.364Z,2.79
2023-03-29T01:29:39.102Z,2.76
2023-03-29T01:34:51.954Z,2.76
2023-03-29T01:39:54.370Z,2.76
2023-03-29T01:44:57.139Z,2.70
2023-03-29T01:49:59.591Z,2.74
2023-03-29T01:55:02.058Z,2.74
2023-03-29T02:00:15.061Z,2.78
2023-03-29T02:05:17.860Z,2.77
2023-03-29T02:10:20.266Z,2.79
2023-03-29T02:15:23.645Z,2.87
2023-03-29T02:20:26.009Z,2.91
2023-03-29T02:25:29.523Z,2.92
2023-03-29T02:30:32.344Z,3.00
2023-03-29T02:35:36.171Z,3.00
2023-03-29T02:40:38.796Z,2.95
2023-03-29T02:45:41.476Z,2.99
2023-03-29T02:50:45.579Z,2.96
2023-03-29T02:55:48.874Z,2.91
2023-03-29T03:00:54.850Z,2.98
2023-03-29T03:05:57.157Z,2.94
2023-03-29T03:11:00.815Z,2.91
2023-03-29T03:16:03.862Z,2.90
2023-03-29T03:21:06.202Z,2.88
2023-03-29T03:26:08.850Z,2.78
2023-03-29T03:31:11.664Z,2.78
2023-03-29T03:36:14.154Z,2.76
2023-03-29T03:41:18.672Z,2.64
2023-03-29T03:46:22.155Z,2.56
2023-03-29T03:51:25.308Z,2.39
2023-03-29T03:56:29.896Z,2.23
2023-03-29T04:01:33.523Z,2.09
2023-03-29T04:06:36.258Z,1.97
2023-03-29T04:11:38.804Z,2.05
2023-03-29T04:16:41.177Z,2.18
2023-03-29T04:21:45.913Z,2.34
2023-03-29T04:26:48.468Z,2.47
2023-03-29T04:31:50.943Z,2.63
2023-03-29T04:36:54.927Z,2.76
2023-03-29T04:41:57.793Z,2.83
2023-03-29T04:47:03.213Z,2.92
2023-03-29T04:52:08.355Z,2.98
2023-03-29T04:57:11.456Z,3.16
2023-03-29T05:02:13.989Z,3.25
2023-03-29T05:07:17.986Z,3.48
2023-03-29T05:12:21.182Z,3.66
2023-03-29T05:17:24.084Z,3.82
2023-03-29T05:22:26.444Z,3.97
2023-03-29T05:27:29.752Z,4.13
2023-03-29T05:32:32.971Z,4.24
2023-03-29T05:37:35.643Z,4.39
2023-03-29T05:42:38.698Z,4.60
2023-03-29T05:47:42.411Z,4.75
2023-03-29T05:52:46.075Z,4.88
2023-03-29T05:57:49.664Z,5.00
2023-03-29T06:02:52.748Z,5.21
2023-03-29T06:07:56.737Z,5.33
2023-03-29T06:13:00.179Z,5.45
2023-03-29T06:18:03.783Z,5.55
2023-03-29T06:23:06.357Z,5.66
2023-03-29T06:28:08.889Z,5.68
2023-03-29T06:33:14.211Z,5.78
2023-03-29T06:38:19.542Z,5.99
2023-03-29T06:43:22.756Z,6.22
2023-03-29T06:48:25.305Z,6.54
2023-03-29T06:53:28.155Z,6.76
2023-03-29T06:58:30.815Z,6.96
2023-03-29T07:03:35.283Z,7.17
2023-03-29T07:08:43.432Z,7.27
2023-03-29T07:13:46.402Z,7.38
2023-03-29T07:18:49.687Z,7.74
2023-03-29T07:23:52.557Z,7.88
2023-03-29T07:28:56.256Z,8.34
2023-03-29T07:34:00.753Z,8.77
2023-03-29T07:39:15.443Z,9.04
2023-03-29T07:44:19.476Z,9.13
2023-03-29T07:49:22.303Z,9.33
2023-03-29T07:54:25.770Z,9.48
2023-03-29T07:59:28.317Z,9.40
2023-03-29T08:04:31.722Z,9.09
2023-03-29T08:09:37.334Z,9.16
2023-03-29T08:14:39.711Z,9.73
2023-03-29T08:19:42.446Z,9.97
2023-03-29T08:24:53.924Z,9.60
2023-03-29T08:29:56.477Z,9.85
2023-03-29T08:34:59.272Z,10.03
2023-03-29T08:40:01.628Z,9.92
2023-03-29T08:45:04.665Z,9.83
2023-03-29T08:50:07.616Z,9.87
2023-03-29T08:55:11.303Z,10.39
2023-03-29T09:00:14.118Z,10.60
2023-03-29T09:05:17.347Z,11.32
2023-03-29T09:10:20.582Z,11.68
2023-03-29T09:15:23.632Z,11.64
2023-03-29T09:20:27.141Z,11.74
2023-03-29T09:25:31.861Z,11.99
2023-03-29T09:30:35.620Z,12.16
2023-03-29T09:35:38.004Z,11.94
2023-03-29T09:40:41.344Z,11.92
2023-03-29T09:45:43.860Z,11.84
2023-03-29T09:50:47.336Z,11.60
2023-03-29T09:55:50.320Z,11.90
2023-03-29T10:00:53.080Z,12.29
2023-03-29T10:05:55.515Z,12.41
2023-03-29T10:10:58.781Z,12.55
2023-03-29T10:16:01.527Z,13.54
2023-03-29T10:21:04.323Z,13.92
2023-03-29T10:26:06.840Z,14.36
2023-03-29T10:31:09.325Z,14.32
2023-03-29T10:36:21.734Z,13.90
2023-03-29T10:41:24.491Z,13.67
2023-03-29T10:46:27.360Z,14.32
2023-03-29T10:51:30.327Z,14.13
2023-03-29T10:56:32.703Z,14.27
2023-03-29T11:01:35.852Z,14.14
2023-03-29T11:06:38.414Z,14.24
2023-03-29T11:11:44.796Z,14.16
2023-03-29T11:16:48.134Z,14.58
2023-03-29T11:21:51.063Z,15.01
2023-03-29T11:26:54.595Z,15.27
2023-03-29T11:31:57.242Z,15.39
2023-03-29T11:36:59.685Z,15.43
2023-03-29T11:42:03.828Z,15.04
2023-03-29T11:47:07.295Z,14.88
2023-03-29T11:52:10.786Z,14.86
2023-03-29T11:57:13.172Z,14.97
2023-03-29T12:02:15.913Z,15.14
2023-03-29T12:07:19.191Z,15.16
2023-03-29T12:12:21.544Z,14.81
2023-03-29T12:17:24.808Z,14.71
2023-03-29T12:22:27.165Z,14.53
2023-03-29T12:27:29.513Z,14.61
2023-03-29T12:32:32.296Z,14.50
2023-03-29T12:37:40.075Z,14.70
2023-03-29T12:42:42.706Z,14.68
2023-03-29T12:47:45.348Z,14.74
2023-03-29T12:52:48.192Z,14.59
2023-03-29T12:57:50.614Z,14.31
2023-03-29T13:03:03.268Z,14.10
2023-03-29T13:08:05.810Z,14.58
2023-03-29T13:13:08.524Z,15.09
2023-03-29T13:18:12.345Z,15.28
2023-03-29T13:23:17.449Z,15.31
2023-03-29T13:28:20.478Z,15.01
2023-03-29T13:33:23.177Z,15.17
2023-03-29T13:38:28.642Z,15.85
2023-03-29T13:43:31.809Z,16.19
2023-03-29T13:48:34.448Z,16.14
2023-03-29T13:53:37.728Z,16.05
2023-03-29T13:58:41.362Z,16.24
2023-03-29T14:03:44.755Z,16.75
2023-03-29T14:08:47.180Z,16.33
2023-03-29T14:13:49.614Z,15.66
2023-03-29T14:18:54.213Z,15.10
2023-03-29T14:23:57.418Z,15.37
2023-03-29T14:29:01.096Z,15.53
2023-03-29T14:34:03.813Z,15.40
2023-03-29T14:39:06.177Z,15.34
2023-03-29T14:44:09.353Z,14.93
2023-03-29T14:49:11.923Z,14.44
2023-03-29T14:54:14.638Z,14.38
2023-03-29T14:59:17.767Z,13.96
2023-03-29T15:04:21.015Z,14.03
2023-03-29T15:09:24.256Z,13.80
2023-03-29T15:14:26.900Z,13.71
2023-03-29T15:19:30.097Z,13.83
2023-03-29T15:24:33.297Z,13.40
2023-03-29T15:29:36.979Z,12.99
2023-03-29T15:34:39.721Z,12.59
2023-03-29T15:39:42.111Z,12.31
2023-03-29T15:44:44.520Z,12.32
2023-03-29T15:49:48.016Z,12.08
2023-03-29T15:54:50.775Z,12.29
2023-03-29T15:59:53.151Z,12.31
2023-03-29T16:04:55.508Z,12.04
2023-03-29T16:09:58.057Z,12.02
2023-03-29T16:15:00.613Z,11.87
2023-03-29T16:20:04.892Z,11.95
2023-03-29T16:25:08.359Z,11.90
2023-03-29T16:30:11.437Z,11.88
2023-03-29T16:35:14.755Z,11.81
2023-03-29T16:40:18.222Z,11.74
2023-03-29T16:45:20.694Z,11.66
2023-03-29T16:50:23.859Z,11.59
2023-03-29T16:55:26.299Z,11.35
2023-03-29T17:00:29.427Z,10.78
2023-03-29T17:05:33.806Z,10.42
2023-03-29T17:10:36.277Z,10.15
2023-03-29T17:15:40.644Z,10.07
2023-03-29T17:20:43.579Z,9.95
2023-03-29T17:25:46.008Z,9.95
2023-03-29T17:30:58.349Z,9.98
2023-03-29T17:36:01.116Z,10.00
2023-03-29T17:41:04.521Z,10.02
2023-03-29T17:46:07.044Z,9.96
2023-03-29T17:51:09.407Z,9.88
2023-03-29T17:56:13.104Z,9.96
2023-03-29T18:01:16.032Z,9.96
2023-03-29T18:06:20.217Z,9.94
2023-03-29T18:11:24.576Z,10.05
2023-03-29T18:16:27.777Z,9.95
2023-03-29T18:21:30.188Z,9.92
2023-03-29T18:26:33.445Z,9.84
2023-03-29T18:31:36.154Z,9.71
2023-03-29T18:36:38.864Z,9.70
2023-03-29T18:41:41.284Z,9.66
2023-03-29T18:46:44.783Z,9.70
2023-03-29T18:51:49.590Z,9.69
2023-03-29T18:56:52.917Z,9.54
2023-03-29T19:01:55.846Z,9.54
2023-03-29T19:06:59.759Z,9.52
2023-03-29T19:12:02.093Z,9.55
2023-03-29T19:17:04.458Z,9.51
2023-03-29T19:22:09.004Z,9.40
2023-03-29T19:27:13.408Z,9.42
2023-03-29T19:32:16.696Z,9.45
2023-03-29T19:37:20.309Z,9.39
2023-03-29T19:42:22.753Z,9.27
2023-03-29T19:47:26.231Z,9.17
2023-03-29T19:52:30.234Z,9.25
2023-03-29T19:57:33.662Z,9.26
2023-03-29T20:02:37.046Z,9.38
2023-03-29T20:07:45.593Z,9.42
2023-03-29T20:12:48.704Z,9.50
2023-03-29T20:17:53.108Z,9.57
2023-03-29T20:23:04.354Z,9.43
2023-03-29T20:28:07.576Z,9.23
2023-03-29T20:33:10.339Z,9.14
2023-03-29T20:38:13.845Z,9.07
2023-03-29T20:43:18.786Z,9.07
2023-03-29T20:48:23.072Z,9.20
2023-03-29T20:53:34.634Z,9.23
2023-03-29T20:58:46.970Z,9.20
2023-03-29T21:03:51.696Z,9.42
2023-03-29T21:09:04.930Z,9.35
2023-03-29T21:14:09.160Z,9.41
2023-03-29T21:19:11.502Z,9.52
2023-03-29T21:24:14.346Z,9.51
2023-03-29T21:29:17.451Z,9.41
2023-03-29T21:34:19.788Z,9.45
2023-03-29T21:39:22.933Z,9.48
2023-03-29T21:44:26.168Z,9.47
2023-03-29T21:49:29.303Z,9.48
2023-03-29T21:54:31.613Z,9.54
2023-03-29T21:59:34.639Z,9.55
2023-03-29T22:04:37.775Z,9.61
2023-03-29T22:09:41.394Z,9.64
2023-03-29T22:14:44.557Z,9.58
2023-03-29T22:19:47.529Z,9.63
2023-03-29T22:24:59.867Z,9.57
2023-03-29T22:30:02.186Z,9.52
2023-03-29T22:35:04.526Z,9.44
2023-03-29T22:40:09.386Z,9.49
2023-03-29T22:45:13.994Z,9.43
2023-03-29T22:50:17.895Z,9.34
2023-03-29T22:55:21.486Z,9.30
2023-03-29T23:00:24.205Z,9.29
2023-03-29T23:05:36.538Z,9.32
2023-03-29T23:10:39.748Z,9.31
2023-03-29T23:15:42.988Z,9.23
2023-03-29T23:20:47.068Z,9.26
2023-03-29T23:25:49.543Z,9.34
2023-03-29T23:30:52.755Z,9.35
2023-03-29T23:35:56.277Z,9.36
2023-03-29T23:41:00.281Z,9.38
2023-03-29T23:46:03.694Z,9.42
2023-03-29T23:51:07.677Z,9.40
2023-03-29T23:56:10.052Z,9.43
